Terminal Aerodrome Forecast
Issued by NWS Twin Cities, MN

Home | Current Version | Previous Version | Graphics & Text | Print | Product List | Glossary On
Versions: 1 2 3 4 5 6 7 8 9 10 11 12 13 14 15
000
FTUS43 KMPX 211743
TAFEAU
TAF
KEAU 211743Z 2118/2218 12006KT P6SM BKN200
     FM212200 21004KT P6SM VCTS SCT025CB BKN050
     FM220200 27005KT P6SM SCT025 BKN100
     FM220800 31006KT P6SM SKC
     FM221600 32012G21KT P6SM SKC=

USA.gov is the U.S. government's official web portal to all federal, state and local government web resources and services.